sensor_id;sensor_type;location;lat;lon;timestamp;pressure;altitude;pressure_sealevel;temperature;humidity
41102;BME280;26845;50.190;19.178;2023-01-28T00:00:10;99104.98;;;-1.02;75.55
41102;BME280;26845;50.190;19.178;2023-01-28T00:02:36;99101.06;;;-1.02;75.42
41102;BME280;26845;50.190;19.178;2023-01-28T00:05:03;99101.23;;;-1.02;75.35
41102;BME280;26845;50.190;19.178;2023-01-28T00:07:28;99106.46;;;-1.01;75.42
41102;BME280;26845;50.190;19.178;2023-01-28T00:09:56;99101.93;;;-0.99;75.43
41102;BME280;26845;50.190;19.178;2023-01-28T00:12:22;99099.07;;;-0.96;75.40
41102;BME280;26845;50.190;19.178;2023-01-28T00:14:48;99098.62;;;-0.97;75.66
41102;BME280;26845;50.190;19.178;2023-01-28T00:17:14;99101.99;;;-0.93;75.55
41102;BME280;26845;50.190;19.178;2023-01-28T00:19:40;99101.05;;;-0.91;75.58
41102;BME280;26845;50.190;19.178;2023-01-28T00:22:07;99104.25;;;-0.92;75.52
41102;BME280;26845;50.190;19.178;2023-01-28T00:24:34;99106.29;;;-0.87;75.54
41102;BME280;26845;50.190;19.178;2023-01-28T00:27:00;99109.23;;;-0.86;75.68
41102;BME280;26845;50.190;19.178;2023-01-28T00:29:27;99110.40;;;-0.86;75.31
41102;BME280;26845;50.190;19.178;2023-01-28T00:31:53;99112.96;;;-0.85;75.46
41102;BME280;26845;50.190;19.178;2023-01-28T00:34:20;99113.98;;;-0.86;75.44
41102;BME280;26845;50.190;19.178;2023-01-28T00:36:48;99117.95;;;-0.92;75.18
41102;BME280;26845;50.190;19.178;2023-01-28T00:39:22;99115.75;;;-0.97;75.34
41102;BME280;26845;50.190;19.178;2023-01-28T00:41:50;99112.79;;;-0.98;75.29
41102;BME280;26845;50.190;19.178;2023-01-28T00:44:15;99111.23;;;-1.01;75.48
41102;BME280;26845;50.190;19.178;2023-01-28T00:46:42;99106.17;;;-1.00;75.41
41102;BME280;26845;50.190;19.178;2023-01-28T00:49:08;99109.80;;;-0.97;75.46
41102;BME280;26845;50.190;19.178;2023-01-28T00:51:34;99108.90;;;-0.96;75.52
41102;BME280;26845;50.190;19.178;2023-01-28T00:54:00;99108.98;;;-0.95;75.45
41102;BME280;26845;50.190;19.178;2023-01-28T00:56:27;99106.83;;;-0.93;75.53
41102;BME280;26845;50.190;19.178;2023-01-28T00:58:53;99105.49;;;-0.88;75.57
41102;BME280;26845;50.190;19.178;2023-01-28T01:01:22;99104.27;;;-0.86;75.60
41102;BME280;26845;50.190;19.178;2023-01-28T01:03:48;99104.95;;;-0.88;75.29
41102;BME280;26845;50.190;19.178;2023-01-28T01:06:23;99105.72;;;-0.89;75.33
41102;BME280;26845;50.190;19.178;2023-01-28T01:08:50;99107.41;;;-0.88;75.50
41102;BME280;26845;50.190;19.178;2023-01-28T01:11:16;99107.65;;;-0.86;75.54
41102;BME280;26845;50.190;19.178;2023-01-28T01:13:42;99103.45;;;-0.91;75.48
41102;BME280;26845;50.190;19.178;2023-01-28T01:16:11;99104.24;;;-0.97;75.17
41102;BME280;26845;50.190;19.178;2023-01-28T01:18:38;99106.75;;;-1.01;75.39
41102;BME280;26845;50.190;19.178;2023-01-28T01:21:12;99110.13;;;-0.99;75.63
41102;BME280;26845;50.190;19.178;2023-01-28T01:23:38;99114.30;;;-0.96;75.76
41102;BME280;26845;50.190;19.178;2023-01-28T01:26:04;99108.45;;;-0.92;75.75
41102;BME280;26845;50.190;19.178;2023-01-28T01:28:31;99114.77;;;-0.93;75.65
41102;BME280;26845;50.190;19.178;2023-01-28T01:31:03;99118.25;;;-0.95;75.47
41102;BME280;26845;50.190;19.178;2023-01-28T01:33:30;99119.86;;;-1.02;75.59
41102;BME280;26845;50.190;19.178;2023-01-28T01:35:56;99122.77;;;-1.06;75.58
41102;BME280;26845;50.190;19.178;2023-01-28T01:38:22;99125.87;;;-1.08;75.61
41102;BME280;26845;50.190;19.178;2023-01-28T01:40:49;99126.71;;;-1.08;75.50
41102;BME280;26845;50.190;19.178;2023-01-28T01:43:50;99127.52;;;-1.08;75.59
41102;BME280;26845;50.190;19.178;2023-01-28T01:46:21;99130.67;;;-1.06;75.44
41102;BME280;26845;50.190;19.178;2023-01-28T01:48:48;99127.45;;;-1.04;76.08
41102;BME280;26845;50.190;19.178;2023-01-28T01:51:18;99127.84;;;-1.04;75.83
41102;BME280;26845;50.190;19.178;2023-01-28T01:53:48;99133.13;;;-1.02;75.99
41102;BME280;26845;50.190;19.178;2023-01-28T01:56:17;99132.91;;;-1.00;75.84
41102;BME280;26845;50.190;19.178;2023-01-28T01:58:46;99133.27;;;-0.97;75.92
41102;BME280;26845;50.190;19.178;2023-01-28T02:01:14;99131.60;;;-0.96;75.83
41102;BME280;26845;50.190;19.178;2023-01-28T02:03:52;99135.04;;;-1.00;75.64
41102;BME280;26845;50.190;19.178;2023-01-28T02:06:20;99139.43;;;-1.03;75.65
41102;BME280;26845;50.190;19.178;2023-01-28T02:08:46;99138.33;;;-1.02;75.82
41102;BME280;26845;50.190;19.178;2023-01-28T02:11:13;99139.16;;;-1.01;75.99
41102;BME280;26845;50.190;19.178;2023-01-28T02:13:48;99144.73;;;-1.01;75.67
41102;BME280;26845;50.190;19.178;2023-01-28T02:16:18;99144.83;;;-1.01;75.92
41102;BME280;26845;50.190;19.178;2023-01-28T02:18:44;99140.19;;;-1.02;75.93
41102;BME280;26845;50.190;19.178;2023-01-28T02:21:41;99142.08;;;-1.00;76.13
41102;BME280;26845;50.190;19.178;2023-01-28T02:27:14;99136.78;;;-1.00;75.90
41102;BME280;26845;50.190;19.178;2023-01-28T02:33:04;99130.44;;;-1.00;76.02
41102;BME280;26845;50.190;19.178;2023-01-28T02:35:41;99134.75;;;-0.99;75.98
41102;BME280;26845;50.190;19.178;2023-01-28T02:38:14;99133.02;;;-0.98;75.94
41102;BME280;26845;50.190;19.178;2023-01-28T02:40:44;99137.27;;;-0.98;76.06
41102;BME280;26845;50.190;19.178;2023-01-28T02:43:44;99134.80;;;-0.99;76.05
41102;BME280;26845;50.190;19.178;2023-01-28T02:49:00;99137.08;;;-0.97;76.20
41102;BME280;26845;50.190;19.178;2023-01-28T02:54:28;99135.88;;;-0.91;76.23
41102;BME280;26845;50.190;19.178;2023-01-28T03:00:03;99136.37;;;-0.95;76.20
41102;BME280;26845;50.190;19.178;2023-01-28T03:02:34;99139.80;;;-0.93;75.92
41102;BME280;26845;50.190;19.178;2023-01-28T03:05:22;99143.20;;;-0.94;75.96
41102;BME280;26845;50.190;19.178;2023-01-28T03:07:49;99142.16;;;-0.91;76.24
41102;BME280;26845;50.190;19.178;2023-01-28T03:10:20;99144.33;;;-0.96;75.95
41102;BME280;26845;50.190;19.178;2023-01-28T03:12:55;99137.82;;;-0.98;76.00
41102;BME280;26845;50.190;19.178;2023-01-28T03:15:47;99141.45;;;-0.95;76.17
41102;BME280;26845;50.190;19.178;2023-01-28T03:18:45;99141.77;;;-0.97;75.92
41102;BME280;26845;50.190;19.178;2023-01-28T03:21:33;99142.65;;;-0.99;75.91
41102;BME280;26845;50.190;19.178;2023-01-28T03:24:23;99139.61;;;-0.98;76.31
41102;BME280;26845;50.190;19.178;2023-01-28T03:27:32;99138.42;;;-0.98;76.12
41102;BME280;26845;50.190;19.178;2023-01-28T03:30:26;99138.04;;;-1.02;76.22
41102;BME280;26845;50.190;19.178;2023-01-28T03:33:13;99146.95;;;-1.11;75.81
41102;BME280;26845;50.190;19.178;2023-01-28T03:35:58;99147.62;;;-1.14;76.14
41102;BME280;26845;50.190;19.178;2023-01-28T03:38:43;99156.63;;;-1.16;76.07
41102;BME280;26845;50.190;19.178;2023-01-28T03:41:18;99155.16;;;-1.17;76.05
41102;BME280;26845;50.190;19.178;2023-01-28T03:43:45;99154.13;;;-1.20;76.16
41102;BME280;26845;50.190;19.178;2023-01-28T03:46:11;99160.99;;;-1.22;76.40
41102;BME280;26845;50.190;19.178;2023-01-28T03:48:38;99157.77;;;-1.22;76.39
41102;BME280;26845;50.190;19.178;2023-01-28T03:51:04;99155.36;;;-1.27;76.40
41102;BME280;26845;50.190;19.178;2023-01-28T03:53:30;99156.79;;;-1.30;76.46
41102;BME280;26845;50.190;19.178;2023-01-28T03:55:56;99157.02;;;-1.32;76.42
41102;BME280;26845;50.190;19.178;2023-01-28T03:58:23;99155.70;;;-1.30;76.59
41102;BME280;26845;50.190;19.178;2023-01-28T04:00:52;99154.95;;;-1.28;76.75
41102;BME280;26845;50.190;19.178;2023-01-28T04:03:19;99154.73;;;-1.24;76.70
41102;BME280;26845;50.190;19.178;2023-01-28T04:05:57;99146.40;;;-1.20;76.50
41102;BME280;26845;50.190;19.178;2023-01-28T04:08:24;99149.34;;;-1.18;76.63
41102;BME280;26845;50.190;19.178;2023-01-28T04:10:50;99151.63;;;-1.13;76.57
41102;BME280;26845;50.190;19.178;2023-01-28T04:13:16;99152.48;;;-1.14;76.71
41102;BME280;26845;50.190;19.178;2023-01-28T04:15:43;99153.03;;;-1.17;76.33
41102;BME280;26845;50.190;19.178;2023-01-28T04:18:10;99153.09;;;-1.21;76.68
41102;BME280;26845;50.190;19.178;2023-01-28T04:20:36;99152.27;;;-1.19;76.62
41102;BME280;26845;50.190;19.178;2023-01-28T04:23:03;99152.14;;;-1.16;76.64
41102;BME280;26845;50.190;19.178;2023-01-28T04:25:30;99152.88;;;-1.11;76.58
41102;BME280;26845;50.190;19.178;2023-01-28T04:27:55;99150.98;;;-1.12;76.66
41102;BME280;26845;50.190;19.178;2023-01-28T04:30:22;99154.98;;;-1.09;76.74
41102;BME280;26845;50.190;19.178;2023-01-28T04:32:48;99154.44;;;-1.09;76.54
41102;BME280;26845;50.190;19.178;2023-01-28T04:35:16;99154.70;;;-1.10;76.53
41102;BME280;26845;50.190;19.178;2023-01-28T04:37:41;99157.40;;;-1.09;76.58
41102;BME280;26845;50.190;19.178;2023-01-28T04:40:09;99161.71;;;-1.08;76.62
41102;BME280;26845;50.190;19.178;2023-01-28T04:42:35;99159.70;;;-1.08;76.47
41102;BME280;26845;50.190;19.178;2023-01-28T04:45:01;99162.85;;;-1.11;76.61
41102;BME280;26845;50.190;19.178;2023-01-28T04:47:27;99165.88;;;-1.15;76.71
41102;BME280;26845;50.190;19.178;2023-01-28T04:49:53;99159.37;;;-1.17;76.57
41102;BME280;26845;50.190;19.178;2023-01-28T04:52:20;99163.60;;;-1.22;76.82
41102;BME280;26845;50.190;19.178;2023-01-28T04:54:46;99166.61;;;-1.24;76.90
41102;BME280;26845;50.190;19.178;2023-01-28T04:57:12;99169.15;;;-1.23;76.87
41102;BME280;26845;50.190;19.178;2023-01-28T04:59:38;99169.85;;;-1.20;76.62
41102;BME280;26845;50.190;19.178;2023-01-28T05:02:04;99170.52;;;-1.19;76.87
41102;BME280;26845;50.190;19.178;2023-01-28T05:04:31;99167.96;;;-1.20;76.66
41102;BME280;26845;50.190;19.178;2023-01-28T05:06:57;99173.62;;;-1.19;76.69
41102;BME280;26845;50.190;19.178;2023-01-28T05:09:23;99173.64;;;-1.17;76.90
41102;BME280;26845;50.190;19.178;2023-01-28T05:11:49;99168.56;;;-1.18;76.69
41102;BME280;26845;50.190;19.178;2023-01-28T05:14:15;99176.80;;;-1.18;76.81
41102;BME280;26845;50.190;19.178;2023-01-28T05:16:42;99172.23;;;-1.21;76.79
41102;BME280;26845;50.190;19.178;2023-01-28T05:19:08;99171.20;;;-1.23;76.93
41102;BME280;26845;50.190;19.178;2023-01-28T05:21:34;99173.10;;;-1.24;76.91
41102;BME280;26845;50.190;19.178;2023-01-28T05:24:00;99174.08;;;-1.24;76.77
41102;BME280;26845;50.190;19.178;2023-01-28T05:26:27;99175.70;;;-1.20;76.95
41102;BME280;26845;50.190;19.178;2023-01-28T05:28:53;99175.59;;;-1.20;76.90
41102;BME280;26845;50.190;19.178;2023-01-28T05:31:19;99180.86;;;-1.21;76.75
41102;BME280;26845;50.190;19.178;2023-01-28T05:33:45;99183.38;;;-1.25;76.89
41102;BME280;26845;50.190;19.178;2023-01-28T05:36:11;99190.34;;;-1.29;76.89
41102;BME280;26845;50.190;19.178;2023-01-28T05:38:37;99189.67;;;-1.34;76.97
41102;BME280;26845;50.190;19.178;2023-01-28T05:41:04;99191.81;;;-1.33;76.96
41102;BME280;26845;50.190;19.178;2023-01-28T05:43:30;99196.19;;;-1.31;77.24
41102;BME280;26845;50.190;19.178;2023-01-28T05:45:56;99198.60;;;-1.32;76.96
41102;BME280;26845;50.190;19.178;2023-01-28T05:48:23;99200.34;;;-1.31;77.31
41102;BME280;26845;50.190;19.178;2023-01-28T05:50:49;99202.75;;;-1.28;77.17
41102;BME280;26845;50.190;19.178;2023-01-28T05:53:16;99201.11;;;-1.25;77.23
41102;BME280;26845;50.190;19.178;2023-01-28T05:55:42;99207.09;;;-1.20;77.39
41102;BME280;26845;50.190;19.178;2023-01-28T05:58:08;99210.59;;;-1.16;77.26
41102;BME280;26845;50.190;19.178;2023-01-28T06:00:34;99214.86;;;-1.15;77.06
41102;BME280;26845;50.190;19.178;2023-01-28T06:03:00;99215.39;;;-1.13;77.26
41102;BME280;26845;50.190;19.178;2023-01-28T06:05:26;99219.16;;;-1.13;76.98
41102;BME280;26845;50.190;19.178;2023-01-28T06:07:53;99218.65;;;-1.16;77.27
41102;BME280;26845;50.190;19.178;2023-01-28T06:10:19;99226.69;;;-1.21;76.99
41102;BME280;26845;50.190;19.178;2023-01-28T06:12:46;99231.25;;;-1.22;77.07
41102;BME280;26845;50.190;19.178;2023-01-28T06:15:12;99234.70;;;-1.21;77.41
41102;BME280;26845;50.190;19.178;2023-01-28T06:17:38;99242.70;;;-1.18;77.43
41102;BME280;26845;50.190;19.178;2023-01-28T06:20:05;99241.89;;;-1.16;77.37
41102;BME280;26845;50.190;19.178;2023-01-28T06:22:32;99244.88;;;-1.16;77.35
41102;BME280;26845;50.190;19.178;2023-01-28T06:24:59;99249.47;;;-1.16;77.43
41102;BME280;26845;50.190;19.178;2023-01-28T06:27:25;99250.02;;;-1.14;77.31
41102;BME280;26845;50.190;19.178;2023-01-28T06:29:51;99248.62;;;-1.09;77.47
41102;BME280;26845;50.190;19.178;2023-01-28T06:32:18;99254.43;;;-1.06;77.40
41102;BME280;26845;50.190;19.178;2023-01-28T06:34:44;99254.39;;;-1.05;77.27
41102;BME280;26845;50.190;19.178;2023-01-28T06:37:14;99255.02;;;-1.06;77.21
41102;BME280;26845;50.190;19.178;2023-01-28T06:39:39;99256.96;;;-1.05;77.33
41102;BME280;26845;50.190;19.178;2023-01-28T06:42:06;99260.29;;;-1.04;77.41
41102;BME280;26845;50.190;19.178;2023-01-28T06:44:32;99261.64;;;-1.00;77.48
41102;BME280;26845;50.190;19.178;2023-01-28T06:46:58;99263.22;;;-1.00;77.43
41102;BME280;26845;50.190;19.178;2023-01-28T06:49:24;99262.45;;;-1.00;77.28
41102;BME280;26845;50.190;19.178;2023-01-28T06:51:50;99264.45;;;-1.00;77.30
41102;BME280;26845;50.190;19.178;2023-01-28T06:54:17;99267.61;;;-1.01;77.40
41102;BME280;26845;50.190;19.178;2023-01-28T06:56:43;99273.29;;;-1.02;77.21
41102;BME280;26845;50.190;19.178;2023-01-28T06:59:09;99271.41;;;-1.04;77.44
41102;BME280;26845;50.190;19.178;2023-01-28T07:01:35;99274.94;;;-1.01;77.33
41102;BME280;26845;50.190;19.178;2023-01-28T07:04:03;99274.79;;;-1.02;77.52
41102;BME280;26845;50.190;19.178;2023-01-28T07:06:29;99276.55;;;-1.04;77.28
41102;BME280;26845;50.190;19.178;2023-01-28T07:08:55;99278.04;;;-1.07;77.38
41102;BME280;26845;50.190;19.178;2023-01-28T07:11:21;99281.86;;;-1.07;77.57
41102;BME280;26845;50.190;19.178;2023-01-28T07:13:49;99286.25;;;-1.02;77.60
41102;BME280;26845;50.190;19.178;2023-01-28T07:16:15;99285.34;;;-1.00;77.69
41102;BME280;26845;50.190;19.178;2023-01-28T07:18:42;99285.44;;;-1.04;77.38
41102;BME280;26845;50.190;19.178;2023-01-28T07:21:08;99285.79;;;-1.09;77.20
41102;BME280;26845;50.190;19.178;2023-01-28T07:23:34;99289.11;;;-1.16;77.31
41102;BME280;26845;50.190;19.178;2023-01-28T07:26:04;99289.45;;;-1.22;77.30
41102;BME280;26845;50.190;19.178;2023-01-28T07:28:30;99292.05;;;-1.26;77.79
41102;BME280;26845;50.190;19.178;2023-01-28T07:30:56;99294.98;;;-1.27;77.65
41102;BME280;26845;50.190;19.178;2023-01-28T07:33:22;99294.17;;;-1.26;77.62
41102;BME280;26845;50.190;19.178;2023-01-28T07:35:48;99291.95;;;-1.26;77.67
41102;BME280;26845;50.190;19.178;2023-01-28T07:38:15;99292.38;;;-1.26;77.63
41102;BME280;26845;50.190;19.178;2023-01-28T07:40:42;99294.58;;;-1.24;77.77
41102;BME280;26845;50.190;19.178;2023-01-28T07:43:08;99296.17;;;-1.20;77.82
41102;BME280;26845;50.190;19.178;2023-01-28T07:45:34;99298.21;;;-1.15;77.64
41102;BME280;26845;50.190;19.178;2023-01-28T07:48:02;99298.64;;;-1.13;77.69
41102;BME280;26845;50.190;19.178;2023-01-28T07:50:30;99304.21;;;-1.08;77.82
41102;BME280;26845;50.190;19.178;2023-01-28T07:52:57;99307.61;;;-1.05;77.50
41102;BME280;26845;50.190;19.178;2023-01-28T07:55:25;99307.33;;;-1.02;77.60
41102;BME280;26845;50.190;19.178;2023-01-28T07:57:56;99308.66;;;-0.99;77.73
41102;BME280;26845;50.190;19.178;2023-01-28T08:00:23;99307.23;;;-0.95;77.64
41102;BME280;26845;50.190;19.178;2023-01-28T08:02:53;99306.93;;;-0.98;77.40
41102;BME280;26845;50.190;19.178;2023-01-28T08:05:20;99306.11;;;-0.96;77.70
41102;BME280;26845;50.190;19.178;2023-01-28T08:07:48;99306.88;;;-0.93;77.71
41102;BME280;26845;50.190;19.178;2023-01-28T08:10:17;99308.26;;;-0.92;77.79
41102;BME280;26845;50.190;19.178;2023-01-28T08:12:51;99309.01;;;-0.88;77.84
41102;BME280;26845;50.190;19.178;2023-01-28T08:15:17;99309.65;;;-0.81;77.75
41102;BME280;26845;50.190;19.178;2023-01-28T08:17:43;99312.19;;;-0.76;77.66
41102;BME280;26845;50.190;19.178;2023-01-28T08:20:10;99314.05;;;-0.74;77.82
41102;BME280;26845;50.190;19.178;2023-01-28T08:22:38;99314.25;;;-0.73;77.70
41102;BME280;26845;50.190;19.178;2023-01-28T08:25:03;99312.29;;;-0.74;77.39
41102;BME280;26845;50.190;19.178;2023-01-28T08:27:29;99313.98;;;-0.78;77.24
41102;BME280;26845;50.190;19.178;2023-01-28T08:29:56;99317.56;;;-0.78;77.45
41102;BME280;26845;50.190;19.178;2023-01-28T08:32:22;99318.48;;;-0.73;77.40
41102;BME280;26845;50.190;19.178;2023-01-28T08:34:48;99323.64;;;-0.71;77.51
41102;BME280;26845;50.190;19.178;2023-01-28T08:37:14;99321.71;;;-0.65;77.50
41102;BME280;26845;50.190;19.178;2023-01-28T08:39:40;99324.40;;;-0.60;77.45
41102;BME280;26845;50.190;19.178;2023-01-28T08:42:07;99326.10;;;-0.61;77.33
41102;BME280;26845;50.190;19.178;2023-01-28T08:44:34;99324.75;;;-0.58;77.26
41102;BME280;26845;50.190;19.178;2023-01-28T08:46:59;99329.06;;;-0.58;77.31
41102;BME280;26845;50.190;19.178;2023-01-28T08:49:26;99333.51;;;-0.59;77.09
41102;BME280;26845;50.190;19.178;2023-01-28T08:51:52;99332.00;;;-0.60;77.33
41102;BME280;26845;50.190;19.178;2023-01-28T08:54:18;99335.73;;;-0.58;77.33
41102;BME280;26845;50.190;19.178;2023-01-28T08:56:44;99337.98;;;-0.55;77.22
41102;BME280;26845;50.190;19.178;2023-01-28T08:59:10;99338.86;;;-0.55;77.25
41102;BME280;26845;50.190;19.178;2023-01-28T09:01:37;99336.94;;;-0.55;77.21
41102;BME280;26845;50.190;19.178;2023-01-28T09:04:03;99338.64;;;-0.57;77.22
41102;BME280;26845;50.190;19.178;2023-01-28T09:06:29;99337.77;;;-0.57;77.15
41102;BME280;26845;50.190;19.178;2023-01-28T09:08:56;99337.23;;;-0.59;77.20
41102;BME280;26845;50.190;19.178;2023-01-28T09:11:22;99337.88;;;-0.65;76.81
41102;BME280;26845;50.190;19.178;2023-01-28T09:13:48;99343.10;;;-0.70;77.01
41102;BME280;26845;50.190;19.178;2023-01-28T09:16:14;99338.20;;;-0.69;77.31
41102;BME280;26845;50.190;19.178;2023-01-28T09:18:42;99343.04;;;-0.68;77.34
41102;BME280;26845;50.190;19.178;2023-01-28T09:21:08;99338.90;;;-0.66;77.20
41102;BME280;26845;50.190;19.178;2023-01-28T09:23:35;99341.50;;;-0.63;77.05
41102;BME280;26845;50.190;19.178;2023-01-28T09:26:03;99343.76;;;-0.62;77.06
41102;BME280;26845;50.190;19.178;2023-01-28T09:28:29;99344.52;;;-0.62;77.06
41102;BME280;26845;50.190;19.178;2023-01-28T09:31:03;99340.05;;;-0.61;77.06
41102;BME280;26845;50.190;19.178;2023-01-28T09:33:30;99343.52;;;-0.60;77.02
41102;BME280;26845;50.190;19.178;2023-01-28T09:35:59;99347.05;;;-0.57;76.88
41102;BME280;26845;50.190;19.178;2023-01-28T09:38:28;99345.45;;;-0.58;76.89
41102;BME280;26845;50.190;19.178;2023-01-28T09:40:54;99349.48;;;-0.60;76.75
41102;BME280;26845;50.190;19.178;2023-01-28T09:46:30;99349.53;;;-0.64;76.53
41102;BME280;26845;50.190;19.178;2023-01-28T09:48:57;99352.92;;;-0.64;76.75
41102;BME280;26845;50.190;19.178;2023-01-28T09:51:31;99351.27;;;-0.62;76.88
41102;BME280;26845;50.190;19.178;2023-01-28T09:54:03;99353.73;;;-0.55;76.86
41102;BME280;26845;50.190;19.178;2023-01-28T09:56:35;99351.20;;;-0.53;76.94
41102;BME280;26845;50.190;19.178;2023-01-28T10:01:57;99345.74;;;-0.48;76.92
41102;BME280;26845;50.190;19.178;2023-01-28T10:04:53;99345.25;;;-0.43;76.84
41102;BME280;26845;50.190;19.178;2023-01-28T10:07:41;99341.77;;;-0.37;76.75
41102;BME280;26845;50.190;19.178;2023-01-28T10:10:15;99339.53;;;-0.37;76.50
41102;BME280;26845;50.190;19.178;2023-01-28T10:16:30;99337.34;;;-0.45;76.56
41102;BME280;26845;50.190;19.178;2023-01-28T10:18:31;99338.77;;;-0.40;76.64
41102;BME280;26845;50.190;19.178;2023-01-28T10:21:13;99337.56;;;-0.37;76.81
41102;BME280;26845;50.190;19.178;2023-01-28T10:26:46;99337.33;;;-0.33;76.35
41102;BME280;26845;50.190;19.178;2023-01-28T10:29:28;99340.18;;;-0.35;76.56
41102;BME280;26845;50.190;19.178;2023-01-28T10:34:45;99342.88;;;-0.28;76.82
41102;BME280;26845;50.190;19.178;2023-01-28T10:37:15;99342.62;;;-0.21;76.72
41102;BME280;26845;50.190;19.178;2023-01-28T10:39:41;99340.47;;;-0.13;76.52
41102;BME280;26845;50.190;19.178;2023-01-28T10:42:30;99338.21;;;-0.07;76.73
41102;BME280;26845;50.190;19.178;2023-01-28T10:44:59;99338.81;;;-0.01;76.69
41102;BME280;26845;50.190;19.178;2023-01-28T10:47:45;99340.52;;;0.09;76.82
41102;BME280;26845;50.190;19.178;2023-01-28T10:50:24;99340.40;;;0.15;76.76
41102;BME280;26845;50.190;19.178;2023-01-28T10:52:56;99340.58;;;0.20;76.86
41102;BME280;26845;50.190;19.178;2023-01-28T10:55:28;99341.23;;;0.24;76.65
41102;BME280;26845;50.190;19.178;2023-01-28T10:57:55;99338.70;;;0.24;76.44
41102;BME280;26845;50.190;19.178;2023-01-28T11:00:25;99335.51;;;0.20;76.11
41102;BME280;26845;50.190;19.178;2023-01-28T11:02:53;99335.35;;;0.15;76.33
41102;BME280;26845;50.190;19.178;2023-01-28T11:05:26;99336.30;;;0.15;76.49
41102;BME280;26845;50.190;19.178;2023-01-28T11:08:14;99338.91;;;0.19;76.48
41102;BME280;26845;50.190;19.178;2023-01-28T11:10:41;99335.13;;;0.18;76.37
41102;BME280;26845;50.190;19.178;2023-01-28T11:13:39;99328.20;;;0.22;76.21
41102;BME280;26845;50.190;19.178;2023-01-28T11:16:16;99328.50;;;0.30;76.21
41102;BME280;26845;50.190;19.178;2023-01-28T11:19:03;99327.89;;;0.38;76.44
41102;BME280;26845;50.190;19.178;2023-01-28T11:21:34;99328.34;;;0.46;76.48
41102;BME280;26845;50.190;19.178;2023-01-28T11:24:03;99328.53;;;0.52;76.32
41102;BME280;26845;50.190;19.178;2023-01-28T11:26:31;99332.76;;;0.57;76.43
41102;BME280;26845;50.190;19.178;2023-01-28T11:28:58;99329.69;;;0.59;76.47
41102;BME280;26845;50.190;19.178;2023-01-28T11:31:25;99326.93;;;0.56;76.16
41102;BME280;26845;50.190;19.178;2023-01-28T11:34:04;99328.58;;;0.54;75.99
41102;BME280;26845;50.190;19.178;2023-01-28T11:36:32;99327.73;;;0.57;76.51
41102;BME280;26845;50.190;19.178;2023-01-28T11:39:15;99325.67;;;0.58;76.56
41102;BME280;26845;50.190;19.178;2023-01-28T11:41:45;99324.09;;;0.63;76.36
41102;BME280;26845;50.190;19.178;2023-01-28T11:44:19;99321.55;;;0.67;76.31
41102;BME280;26845;50.190;19.178;2023-01-28T12:01:46;99311.68;;;0.89;76.12
41102;BME280;26845;50.190;19.178;2023-01-28T12:04:33;99312.42;;;0.88;75.85
41102;BME280;26845;50.190;19.178;2023-01-28T12:09:54;99315.20;;;0.82;75.51
41102;BME280;26845;50.190;19.178;2023-01-28T12:12:43;99317.98;;;0.84;76.04
41102;BME280;26845;50.190;19.178;2023-01-28T12:15:57;99317.10;;;0.82;75.48
41102;BME280;26845;50.190;19.178;2023-01-28T12:31:28;99304.79;;;0.56;75.43
41102;BME280;26845;50.190;19.178;2023-01-28T12:40:10;99305.80;;;0.19;75.17
41102;BME280;26845;50.190;19.178;2023-01-28T12:42:41;99310.36;;;0.16;75.49
41102;BME280;26845;50.190;19.178;2023-01-28T12:45:20;99310.67;;;0.13;75.24
41102;BME280;26845;50.190;19.178;2023-01-28T12:47:54;99309.96;;;0.09;75.60
41102;BME280;26845;50.190;19.178;2023-01-28T12:50:27;99309.93;;;0.08;75.62
41102;BME280;26845;50.190;19.178;2023-01-28T12:52:59;99312.65;;;0.10;75.77
41102;BME280;26845;50.190;19.178;2023-01-28T12:55:43;99320.70;;;0.12;75.55
41102;BME280;26845;50.190;19.178;2023-01-28T12:58:17;99319.48;;;0.16;75.79
41102;BME280;26845;50.190;19.178;2023-01-28T13:00:49;99325.27;;;0.15;75.63
41102;BME280;26845;50.190;19.178;2023-01-28T13:03:52;99324.95;;;0.16;75.57
41102;BME280;26845;50.190;19.178;2023-01-28T13:06:32;99323.79;;;0.13;75.55
41102;BME280;26845;50.190;19.178;2023-01-28T13:09:11;99321.48;;;0.13;75.61
41102;BME280;26845;50.190;19.178;2023-01-28T13:11:38;99325.23;;;0.12;75.53
41102;BME280;26845;50.190;19.178;2023-01-28T13:14:04;99323.84;;;0.13;75.68
41102;BME280;26845;50.190;19.178;2023-01-28T13:16:31;99326.52;;;0.17;75.93
41102;BME280;26845;50.190;19.178;2023-01-28T13:21:44;99333.83;;;0.35;75.89
41102;BME280;26845;50.190;19.178;2023-01-28T13:26:56;99341.28;;;0.40;75.78
41102;BME280;26845;50.190;19.178;2023-01-28T13:29:32;99340.33;;;0.44;75.95
41102;BME280;26845;50.190;19.178;2023-01-28T13:32:01;99342.75;;;0.49;75.78
41102;BME280;26845;50.190;19.178;2023-01-28T13:34:40;99344.83;;;0.49;75.41
41102;BME280;26845;50.190;19.178;2023-01-28T13:40:02;99340.61;;;0.51;75.77
41102;BME280;26845;50.190;19.178;2023-01-28T13:42:30;99342.85;;;0.56;75.87
41102;BME280;26845;50.190;19.178;2023-01-28T13:47:47;99350.00;;;0.67;75.68
41102;BME280;26845;50.190;19.178;2023-01-28T13:50:18;99354.45;;;0.68;75.88
41102;BME280;26845;50.190;19.178;2023-01-28T13:52:46;99351.92;;;0.65;75.52
41102;BME280;26845;50.190;19.178;2023-01-28T13:55:22;99350.95;;;0.63;75.51
41102;BME280;26845;50.190;19.178;2023-01-28T14:01:30;99352.30;;;0.63;75.67
41102;BME280;26845;50.190;19.178;2023-01-28T14:04:34;99351.15;;;0.64;75.93
41102;BME280;26845;50.190;19.178;2023-01-28T14:07:12;99350.23;;;0.70;75.78
41102;BME280;26845;50.190;19.178;2023-01-28T14:17:53;99352.06;;;0.86;75.94
41102;BME280;26845;50.190;19.178;2023-01-28T14:20:33;99353.30;;;0.80;75.74
41102;BME280;26845;50.190;19.178;2023-01-28T14:23:04;99356.35;;;0.70;75.58
41102;BME280;26845;50.190;19.178;2023-01-28T14:28:18;99358.85;;;0.64;75.54
41102;BME280;26845;50.190;19.178;2023-01-28T14:30:53;99358.38;;;0.65;75.96
41102;BME280;26845;50.190;19.178;2023-01-28T14:33:20;99363.34;;;0.69;75.94
41102;BME280;26845;50.190;19.178;2023-01-28T14:35:48;99360.89;;;0.75;76.00
41102;BME280;26845;50.190;19.178;2023-01-28T14:38:17;99356.08;;;0.80;75.90
41102;BME280;26845;50.190;19.178;2023-01-28T14:40:48;99355.13;;;0.86;76.04